Airfield :
LOGIN :

Register | Disclaimer

   EN    FR    IT 

 










Legend :    VFR   Marginal VFR   IFR   Intensive IFR   Very Intensive IFR
Visi :
Ceiling :
>= 8 km
>= 3000ft
5 to 8 km
1000 to 3000 ft
1500m to 5 km
500 to 1000 ft
800 to 1500m
200 to 500 ft
< 800m
< 200 ft
Symbols :   Thunderstorms  Fog  Heavy snow  Heavy precipitations  Wind > 20 kt
SIGMETs :     Misc.  Thunderstorms  Icing  Turbulence  Mountain Waves  Volcanic Ashes






- Airport Elevation : 195 ft


LFMY - Salon de Provence

CURRENT METAR :
  • 080330Z AUTO VRB02KT 9999 // NSC 13/08 Q1015

EXPIRED METARs :
  • 080300Z AUTO 00000KT 9999 // NSC 13/09 Q1015
  • 080230Z AUTO 00000KT 9999 // NSC 14/08 Q1015
  • 080200Z AUTO 05002KT 9999 // NSC 14/08 Q1015
  • 080130Z AUTO 00000KT 9999 // NSC 15/09 Q1015
  • 080100Z AUTO 00000KT 9999 // NSC 15/09 Q1015
  • 080030Z AUTO 00000KT 9999 // NSC 16/09 Q1015

TAF TAF LFMY
Valid from the 07 at 21:00 until the 08 at 21:00 UTC


072000Z 0721/0821 30005KT CAVOK
BECMG 0809/0811 21012KT
BECMG 0819/0821 VRB02KT



MET'MAP, your aeronautical weather chart ! - Copyright ORBIFLY December 2007 - Disclaimer

ORBIFLY MET'MAP TEAM :

Programming & Development : Alexandra Zaïnal
Concept & original design : Baudouin d'Aumeries
Assistance for programming : Marc-Olivier Méhu
Technical & hardware support : Manuel Goepfert

Contact : metmap@orbifly.com




SOURCES & CREDITS :

   NOAA